createdAt,value
2018-09-22T00:00:39.883Z,11.03
2018-09-22T00:01:40.260Z,11.01
2018-09-22T00:02:40.715Z,10.99
2018-09-22T00:03:41.282Z,10.97
2018-09-22T00:04:41.266Z,10.97
2018-09-22T00:05:41.686Z,10.97
2018-09-22T00:06:42.634Z,10.98
2018-09-22T00:07:42.643Z,10.98
2018-09-22T00:08:42.770Z,10.99
2018-09-22T00:09:42.593Z,11.01
2018-09-22T00:10:42.920Z,11.03
2018-09-22T00:11:43.623Z,11.04
2018-09-22T00:12:43.538Z,11.06
2018-09-22T00:13:44.035Z,11.06
2018-09-22T00:14:44.325Z,11.08
2018-09-22T00:15:44.699Z,11.08
2018-09-22T00:16:45.225Z,11.11
2018-09-22T00:17:45.086Z,11.12
2018-09-22T00:18:45.501Z,11.13
2018-09-22T00:19:45.788Z,11.15
2018-09-22T00:20:46.324Z,11.16
2018-09-22T00:21:46.336Z,11.18
2018-09-22T00:22:46.660Z,11.20
2018-09-22T00:23:47.070Z,11.21
2018-09-22T00:24:47.531Z,11.21
2018-09-22T00:25:48.608Z,11.21
2018-09-22T00:26:48.203Z,11.21
2018-09-22T00:27:48.520Z,11.20
2018-09-22T00:28:49.267Z,11.19
2018-09-22T00:29:49.255Z,11.18
2018-09-22T00:30:49.784Z,11.17
2018-09-22T00:31:50.391Z,11.15
2018-09-22T00:32:50.906Z,11.13
2018-09-22T00:33:50.618Z,11.10
2018-09-22T00:34:50.828Z,11.08
2018-09-22T00:35:51.234Z,11.05
2018-09-22T00:36:51.239Z,11.03
2018-09-22T00:37:51.750Z,11.00
2018-09-22T00:38:51.958Z,10.97
2018-09-22T00:39:51.882Z,10.95
2018-09-22T00:40:52.230Z,10.91
2018-09-22T00:41:52.590Z,10.88
2018-09-22T00:42:52.777Z,10.85
2018-09-22T00:43:53.082Z,10.82
2018-09-22T00:44:53.250Z,10.79
2018-09-22T00:45:53.430Z,10.76
2018-09-22T00:46:53.641Z,10.74
2018-09-22T00:47:53.843Z,10.71
2018-09-22T00:48:54.162Z,10.68
2018-09-22T00:49:54.254Z,10.65
2018-09-22T00:50:54.188Z,10.63
2018-09-22T00:51:54.883Z,10.60
2018-09-22T00:52:55.095Z,10.58
2018-09-22T00:53:54.911Z,10.56
2018-09-22T00:54:55.455Z,10.53
2018-09-22T00:55:55.442Z,10.51
2018-09-22T00:56:55.868Z,10.49
2018-09-22T00:57:56.157Z,10.47
2018-09-22T00:58:56.648Z,10.45
2018-09-22T00:59:57.192Z,10.44
2018-09-22T01:00:57.338Z,10.42
2018-09-22T01:01:57.350Z,10.41
2018-09-22T01:02:57.665Z,10.40
2018-09-22T01:03:58.104Z,10.38
2018-09-22T01:04:58.395Z,10.36
2018-09-22T01:05:58.864Z,10.34
2018-09-22T01:06:59.515Z,10.32
2018-09-22T01:07:59.357Z,10.31
2018-09-22T01:08:59.685Z,10.29
2018-09-22T01:10:00.247Z,10.27
2018-09-22T01:11:00.138Z,10.26
2018-09-22T01:12:00.510Z,10.24
2018-09-22T01:13:00.809Z,10.23
2018-09-22T01:14:01.498Z,10.22
2018-09-22T01:15:01.894Z,10.21
2018-09-22T01:16:02.317Z,10.20
2018-09-22T01:17:02.712Z,10.20
2018-09-22T01:18:02.977Z,10.19
2018-09-22T01:19:03.201Z,10.18
2018-09-22T01:20:03.811Z,10.17
2018-09-22T01:22:04.439Z,10.17
2018-09-22T01:23:04.131Z,10.18
2018-09-22T01:24:04.773Z,10.19
2018-09-22T01:25:04.559Z,10.21
2018-09-22T01:26:04.788Z,10.24
2018-09-22T01:27:05.073Z,10.28
2018-09-22T01:28:05.195Z,10.31
2018-09-22T01:29:04.909Z,10.36
2018-09-22T01:30:05.532Z,10.41
2018-09-22T01:31:05.623Z,10.47
2018-09-22T01:32:05.936Z,10.53
2018-09-22T01:33:06.352Z,10.61
2018-09-22T01:34:06.778Z,10.67
2018-09-22T01:35:06.766Z,10.73
2018-09-22T01:36:07.144Z,10.78
2018-09-22T01:37:07.438Z,10.82
2018-09-22T01:38:07.636Z,10.87
2018-09-22T01:39:07.908Z,10.91
2018-09-22T01:40:08.045Z,10.95
2018-09-22T01:41:08.114Z,11.00
2018-09-22T01:42:08.651Z,11.04
2018-09-22T01:43:08.352Z,11.09
2018-09-22T01:44:08.470Z,11.13
2018-09-22T01:45:08.646Z,11.19
2018-09-22T01:46:08.525Z,11.22
2018-09-22T01:47:09.448Z,11.25
2018-09-22T01:48:09.644Z,11.27
2018-09-22T01:49:09.446Z,11.29
2018-09-22T01:50:09.775Z,11.32
2018-09-22T01:51:10.389Z,11.35
2018-09-22T01:52:10.591Z,11.37
2018-09-22T01:53:10.579Z,11.39
2018-09-22T01:54:10.967Z,11.41
2018-09-22T01:55:11.643Z,11.44
2018-09-22T01:56:11.863Z,11.47
2018-09-22T01:57:11.821Z,11.50
2018-09-22T01:58:12.415Z,11.52
2018-09-22T01:59:12.371Z,11.54
2018-09-22T02:00:12.881Z,11.56
2018-09-22T02:01:12.709Z,11.59
2018-09-22T02:02:13.305Z,11.62
2018-09-22T02:03:13.316Z,11.65
2018-09-22T02:04:13.130Z,11.67
2018-09-22T02:05:14.141Z,11.70
2018-09-22T02:06:13.641Z,11.71
2018-09-22T02:07:13.561Z,11.73
2018-09-22T02:08:13.887Z,11.74
2018-09-22T02:09:14.567Z,11.74
2018-09-22T02:10:14.475Z,11.75
2018-09-22T02:11:14.825Z,11.74
2018-09-22T02:12:15.136Z,11.74
2018-09-22T02:13:15.543Z,11.74
2018-09-22T02:14:15.564Z,11.75
2018-09-22T02:15:16.397Z,11.75
2018-09-22T02:16:16.546Z,11.74
2018-09-22T02:17:16.388Z,11.74
2018-09-22T02:18:16.711Z,11.73
2018-09-22T02:19:17.027Z,11.73
2018-09-22T02:20:17.435Z,11.72
2018-09-22T02:21:18.136Z,11.73
2018-09-22T02:22:17.950Z,11.73
2018-09-22T02:23:19.479Z,11.73
2018-09-22T02:24:19.295Z,11.72
2018-09-22T02:25:19.390Z,11.71
2018-09-22T02:26:19.296Z,11.69
2018-09-22T02:27:19.609Z,11.67
2018-09-22T02:28:19.611Z,11.66
2018-09-22T02:29:19.941Z,11.66
2018-09-22T02:30:20.349Z,11.66
2018-09-22T02:31:20.965Z,11.65
2018-09-22T02:32:20.984Z,11.64
2018-09-22T02:33:21.086Z,11.62
2018-09-22T02:34:21.099Z,11.60
2018-09-22T02:35:21.197Z,11.59
2018-09-22T02:36:21.063Z,11.57
2018-09-22T02:37:21.518Z,11.57
2018-09-22T02:38:22.031Z,11.56
2018-09-22T02:40:22.129Z,11.56
2018-09-22T02:41:22.022Z,11.56
2018-09-22T02:42:22.337Z,11.56
2018-09-22T02:43:22.521Z,11.57
2018-09-22T02:44:22.609Z,11.57
2018-09-22T02:45:22.710Z,11.58
2018-09-22T02:46:22.821Z,11.58
2018-09-22T02:47:22.947Z,11.58
2018-09-22T02:48:23.096Z,11.57
2018-09-22T02:49:23.245Z,11.57
2018-09-22T02:50:23.535Z,11.55
2018-09-22T02:51:23.720Z,11.54
2018-09-22T02:52:23.902Z,11.53
2018-09-22T02:53:24.097Z,11.52
2018-09-22T02:54:24.413Z,11.52
2018-09-22T02:55:24.454Z,11.52
2018-09-22T02:56:24.437Z,11.52
2018-09-22T02:57:24.770Z,11.52
2018-09-22T02:58:25.419Z,11.52
2018-09-22T02:59:25.307Z,11.51
2018-09-22T03:00:25.961Z,11.51
2018-09-22T03:01:25.844Z,11.51
2018-09-22T03:02:26.499Z,11.50
2018-09-22T03:03:26.382Z,11.50
2018-09-22T03:04:26.914Z,11.50
2018-09-22T03:05:26.739Z,11.49
2018-09-22T03:06:27.308Z,11.48
2018-09-22T03:07:27.356Z,11.46
2018-09-22T03:08:27.177Z,11.45
2018-09-22T03:09:27.773Z,11.44
2018-09-22T03:10:27.645Z,11.41
2018-09-22T03:11:28.055Z,11.39
2018-09-22T03:12:28.428Z,11.36
2018-09-22T03:13:28.918Z,11.34
2018-09-22T03:14:28.856Z,11.32
2018-09-22T03:15:29.462Z,11.29
2018-09-22T03:16:29.642Z,11.27
2018-09-22T03:17:29.572Z,11.25
2018-09-22T03:18:29.922Z,11.22
2018-09-22T03:19:30.327Z,11.21
2018-09-22T03:20:30.634Z,11.19
2018-09-22T03:21:31.222Z,11.17
2018-09-22T03:22:31.221Z,11.15
2018-09-22T03:23:31.517Z,11.14
2018-09-22T03:24:31.334Z,11.13
2018-09-22T03:26:31.949Z,11.13
2018-09-22T03:27:31.851Z,11.12
2018-09-22T03:28:32.023Z,11.12
2018-09-22T03:29:32.544Z,11.12
2018-09-22T03:30:32.437Z,11.12
2018-09-22T03:31:33.346Z,11.12
2018-09-22T03:32:33.960Z,11.12
2018-09-22T03:33:34.585Z,11.11
2018-09-22T03:34:34.663Z,11.11
2018-09-22T03:35:34.608Z,11.10
2018-09-22T03:36:35.012Z,11.09
2018-09-22T03:37:35.532Z,11.08
2018-09-22T03:38:35.335Z,11.06
2018-09-22T03:39:35.953Z,11.05
2018-09-22T03:40:35.972Z,11.04
2018-09-22T03:41:35.847Z,11.03
2018-09-22T03:42:36.281Z,11.02
2018-09-22T03:43:36.390Z,11.02
2018-09-22T03:44:36.809Z,11.03
2018-09-22T03:45:36.919Z,11.04
2018-09-22T03:46:37.110Z,11.05
2018-09-22T03:47:36.693Z,11.05
2018-09-22T03:48:37.408Z,11.05
2018-09-22T03:49:37.594Z,11.05
2018-09-22T03:50:37.777Z,11.05
2018-09-22T03:51:37.861Z,11.04
2018-09-22T03:52:37.651Z,11.03
2018-09-22T03:53:38.402Z,11.05
2018-09-22T03:54:38.679Z,11.06
2018-09-22T03:55:38.833Z,11.08
2018-09-22T03:56:39.197Z,11.11
2018-09-22T03:57:39.170Z,11.13
2018-09-22T03:58:39.604Z,11.15
2018-09-22T03:59:40.093Z,11.18
2018-09-22T04:00:40.431Z,11.21
2018-09-22T04:01:40.785Z,11.23
2018-09-22T04:02:41.364Z,11.24
2018-09-22T04:03:41.399Z,11.25
2018-09-22T04:04:41.488Z,11.24
2018-09-22T04:05:41.523Z,11.24
2018-09-22T04:06:41.325Z,11.23
2018-09-22T04:07:41.688Z,11.24
2018-09-22T04:08:42.003Z,11.24
2018-09-22T04:09:42.291Z,11.24
2018-09-22T04:10:42.645Z,11.24
2018-09-22T04:11:43.245Z,11.23
2018-09-22T04:12:43.142Z,11.23
2018-09-22T04:13:43.623Z,11.22
2018-09-22T04:14:44.033Z,11.23
2018-09-22T04:15:44.460Z,11.24
2018-09-22T04:16:44.531Z,11.25
2018-09-22T04:17:44.992Z,11.25
2018-09-22T04:18:45.527Z,11.26
2018-09-22T04:19:45.545Z,11.26
2018-09-22T04:20:45.534Z,11.25
2018-09-22T04:21:45.884Z,11.25
2018-09-22T04:22:46.451Z,11.24
2018-09-22T04:23:46.485Z,11.23
2018-09-22T04:24:46.312Z,11.22
2018-09-22T04:25:46.827Z,11.21
2018-09-22T04:26:46.720Z,11.19
2018-09-22T04:27:46.776Z,11.18
2018-09-22T04:28:47.316Z,11.16
2018-09-22T04:29:47.157Z,11.14
2018-09-22T04:30:47.588Z,11.13
2018-09-22T04:31:47.583Z,11.11
2018-09-22T04:32:47.545Z,11.10
2018-09-22T04:33:47.947Z,11.08
2018-09-22T04:34:49.112Z,11.06
2018-09-22T04:35:49.018Z,11.04
2018-09-22T04:36:49.844Z,11.02
2018-09-22T04:37:50.258Z,11.01
2018-09-22T04:38:49.968Z,10.99
2018-09-22T04:39:50.175Z,10.97
2018-09-22T04:40:50.595Z,10.96
2018-09-22T04:41:50.950Z,10.93
2018-09-22T04:42:51.007Z,10.91
2018-09-22T04:43:51.241Z,10.88
2018-09-22T04:44:51.529Z,10.86
2018-09-22T04:45:51.651Z,10.84
2018-09-22T04:46:51.649Z,10.81
2018-09-22T04:47:52.271Z,10.79
2018-09-22T04:48:52.169Z,10.77
2018-09-22T04:49:52.309Z,10.74
2018-09-22T04:50:52.528Z,10.73
2018-09-22T04:51:52.848Z,10.70
2018-09-22T04:52:53.228Z,10.68
2018-09-22T04:53:53.414Z,10.67
2018-09-22T04:54:53.647Z,10.65
2018-09-22T04:55:54.020Z,10.64
2018-09-22T04:56:54.214Z,10.62
2018-09-22T04:57:54.329Z,10.60
2018-09-22T04:58:54.241Z,10.58
2018-09-22T04:59:54.630Z,10.57
2018-09-22T05:00:55.000Z,10.55
2018-09-22T05:01:55.670Z,10.55
2018-09-22T05:02:55.587Z,10.55
2018-09-22T05:03:55.987Z,10.54
2018-09-22T05:04:56.575Z,10.53
2018-09-22T05:05:56.417Z,10.52
2018-09-22T05:06:56.720Z,10.51
2018-09-22T05:07:57.380Z,10.50
2018-09-22T05:08:57.487Z,10.48
2018-09-22T05:09:57.405Z,10.47
2018-09-22T05:10:57.779Z,10.46
2018-09-22T05:11:58.213Z,10.45
2018-09-22T05:12:58.600Z,10.46
2018-09-22T05:13:59.060Z,10.47
2018-09-22T05:14:59.372Z,10.48
2018-09-22T05:15:59.759Z,10.49
2018-09-22T05:17:00.219Z,10.50
2018-09-22T05:18:00.476Z,10.50
2018-09-22T05:19:00.781Z,10.51
2018-09-22T05:20:01.790Z,10.51
2018-09-22T05:21:01.354Z,10.51
2018-09-22T05:22:01.583Z,10.51
2018-09-22T05:23:01.715Z,10.51
2018-09-22T05:24:01.533Z,10.51
2018-09-22T05:25:01.894Z,10.51
2018-09-22T05:26:02.260Z,10.50
2018-09-22T05:27:02.598Z,10.49
2018-09-22T05:28:03.081Z,10.48
2018-09-22T05:29:03.698Z,10.47
2018-09-22T05:30:04.017Z,10.45
2018-09-22T05:31:04.232Z,10.43
2018-09-22T05:32:04.434Z,10.41
2018-09-22T05:33:04.850Z,10.39
2018-09-22T05:34:04.921Z,10.38
2018-09-22T05:35:05.172Z,10.37
2018-09-22T05:36:05.496Z,10.37
2018-09-22T05:37:05.902Z,10.37
2018-09-22T05:38:06.026Z,10.37
2018-09-22T05:39:06.323Z,10.37
2018-09-22T05:40:06.637Z,10.37
2018-09-22T05:41:06.345Z,10.37
2018-09-22T05:42:06.958Z,10.37
2018-09-22T05:43:06.963Z,10.37
2018-09-22T05:44:06.959Z,10.37
2018-09-22T05:45:06.566Z,10.36
2018-09-22T05:46:07.110Z,10.35
2018-09-22T05:47:07.171Z,10.35
2018-09-22T05:48:07.289Z,10.35
2018-09-22T05:49:07.360Z,10.35
2018-09-22T05:50:07.516Z,10.36
2018-09-22T05:51:07.462Z,10.36
2018-09-22T05:52:07.277Z,10.37
2018-09-22T05:53:07.461Z,10.37
2018-09-22T05:54:07.715Z,10.37
2018-09-22T05:55:07.854Z,10.39
2018-09-22T05:56:07.999Z,10.40
2018-09-22T05:57:07.969Z,10.41
2018-09-22T05:58:08.749Z,10.42
2018-09-22T05:59:08.708Z,10.44
2018-09-22T06:00:08.948Z,10.46
2018-09-22T06:01:09.785Z,10.48
2018-09-22T06:02:09.984Z,10.50
2018-09-22T06:03:09.791Z,10.52
2018-09-22T06:04:10.347Z,10.55
2018-09-22T06:05:10.360Z,10.57
2018-09-22T06:06:10.233Z,10.59
2018-09-22T06:07:10.627Z,10.62
2018-09-22T06:08:11.184Z,10.65
2018-09-22T06:09:11.657Z,10.69
2018-09-22T06:10:12.157Z,10.73
2018-09-22T06:11:12.511Z,10.78
2018-09-22T06:12:12.504Z,10.82
2018-09-22T06:13:12.855Z,10.87
2018-09-22T06:14:13.265Z,10.91
2018-09-22T06:15:13.483Z,10.96
2018-09-22T06:16:13.363Z,11.00
2018-09-22T06:17:13.771Z,11.04
2018-09-22T06:18:14.948Z,11.07
2018-09-22T06:19:14.606Z,11.11
2018-09-22T06:20:14.567Z,11.15
2018-09-22T06:21:15.042Z,11.19
2018-09-22T06:22:15.500Z,11.23
2018-09-22T06:23:16.038Z,11.27
2018-09-22T06:24:16.547Z,11.30
2018-09-22T06:25:16.385Z,11.34
2018-09-22T06:26:16.616Z,11.37
2018-09-22T06:27:17.190Z,11.41
2018-09-22T06:28:17.125Z,11.44
2018-09-22T06:29:17.538Z,11.48
2018-09-22T06:30:18.125Z,11.51
2018-09-22T06:31:18.045Z,11.54
2018-09-22T06:32:19.264Z,11.57
2018-09-22T06:33:19.477Z,11.60
2018-09-22T06:34:19.800Z,11.64
2018-09-22T06:35:20.004Z,11.67
2018-09-22T06:36:20.325Z,11.70
2018-09-22T06:37:20.747Z,11.74
2018-09-22T06:38:21.253Z,11.78
2018-09-22T06:39:21.460Z,11.82
2018-09-22T06:40:21.877Z,11.86
2018-09-22T06:41:21.914Z,11.89
2018-09-22T06:42:21.853Z,11.93
2018-09-22T06:43:22.191Z,11.96
2018-09-22T06:44:22.416Z,12.01
2018-09-22T06:45:22.608Z,12.05
2018-09-22T06:46:22.805Z,12.08
2018-09-22T06:47:22.839Z,12.13
2018-09-22T06:48:23.043Z,12.18
2018-09-22T06:49:23.269Z,12.23
2018-09-22T06:50:23.465Z,12.27
2018-09-22T06:51:23.665Z,12.32
2018-09-22T06:52:24.047Z,12.36
2018-09-22T06:53:24.247Z,12.41
2018-09-22T06:54:24.260Z,12.45
2018-09-22T06:55:24.693Z,12.49
2018-09-22T06:56:25.105Z,12.53
2018-09-22T06:57:25.108Z,12.57
2018-09-22T06:58:25.554Z,12.61
2018-09-22T06:59:26.011Z,12.65
2018-09-22T07:00:26.333Z,12.69
2018-09-22T07:01:26.651Z,12.73
2018-09-22T07:02:27.074Z,12.78
2018-09-22T07:03:27.686Z,12.82
2018-09-22T07:04:27.504Z,12.87
2018-09-22T07:05:27.907Z,12.93
2018-09-22T07:06:28.663Z,12.99
2018-09-22T07:07:28.814Z,13.04
2018-09-22T07:08:28.748Z,13.10
2018-09-22T07:09:29.045Z,13.15
2018-09-22T07:10:29.377Z,13.20
2018-09-22T07:11:29.801Z,13.24
2018-09-22T07:12:29.834Z,13.29
2018-09-22T07:13:30.459Z,13.34
2018-09-22T07:14:30.499Z,13.36
2018-09-22T07:15:30.778Z,13.39
2018-09-22T07:16:30.835Z,13.44
2018-09-22T07:17:30.745Z,13.48
2018-09-22T07:18:31.173Z,13.51
2018-09-22T07:19:31.642Z,13.55
2018-09-22T07:20:32.015Z,13.59
2018-09-22T07:21:32.452Z,13.63
2018-09-22T07:22:32.418Z,13.67
2018-09-22T07:23:32.534Z,13.72
2018-09-22T07:24:33.180Z,13.77
2018-09-22T07:25:33.538Z,13.82
2018-09-22T07:26:34.576Z,13.86
2018-09-22T07:27:34.485Z,13.91
2018-09-22T07:28:34.788Z,13.95
2018-09-22T07:29:35.204Z,14.00
2018-09-22T07:30:35.509Z,14.03
2018-09-22T07:31:35.943Z,14.07
2018-09-22T07:32:36.225Z,14.11
2018-09-22T07:33:36.358Z,14.15
2018-09-22T07:34:36.568Z,14.19
2018-09-22T07:35:36.869Z,14.23
2018-09-22T07:36:37.103Z,14.28
2018-09-22T07:37:37.189Z,14.33
2018-09-22T07:38:37.270Z,14.39
2018-09-22T07:39:37.287Z,14.45
2018-09-22T07:40:37.317Z,14.52
2018-09-22T07:41:37.299Z,14.59
2018-09-22T07:42:37.594Z,14.66
2018-09-22T07:43:37.806Z,14.74
2018-09-22T07:44:38.012Z,14.81
2018-09-22T07:45:38.183Z,14.88
2018-09-22T07:46:38.284Z,14.95
2018-09-22T07:47:38.491Z,15.01
2018-09-22T07:48:38.670Z,15.04
2018-09-22T07:49:38.950Z,15.09
2018-09-22T07:50:39.202Z,15.09
2018-09-22T07:51:39.573Z,15.09
2018-09-22T07:52:39.385Z,15.12
2018-09-22T07:53:39.738Z,15.14
2018-09-22T07:54:40.344Z,15.16
2018-09-22T07:55:40.463Z,15.20
2018-09-22T07:56:40.367Z,15.24
2018-09-22T07:57:40.962Z,15.29
2018-09-22T07:58:41.037Z,15.34
2018-09-22T07:59:40.993Z,15.39
2018-09-22T08:00:41.402Z,15.45
2018-09-22T08:01:41.719Z,15.50
2018-09-22T08:02:42.165Z,15.56
2018-09-22T08:03:42.553Z,15.60
2018-09-22T08:05:42.641Z,15.66
2018-09-22T08:06:43.185Z,15.76
2018-09-22T08:07:43.179Z,15.86
2018-09-22T08:08:43.577Z,15.96
2018-09-22T08:09:44.132Z,16.06
2018-09-22T08:10:43.991Z,16.13
2018-09-22T08:11:44.347Z,16.16
2018-09-22T08:12:44.640Z,16.19
2018-09-22T08:13:45.173Z,16.24
2018-09-22T08:14:45.723Z,16.32
2018-09-22T08:15:45.525Z,16.41
2018-09-22T08:16:45.986Z,16.51
2018-09-22T08:17:46.536Z,16.62
2018-09-22T08:18:46.405Z,16.69
2018-09-22T08:19:46.720Z,16.79
2018-09-22T08:20:47.266Z,16.88
2018-09-22T08:21:47.516Z,16.97
2018-09-22T08:22:47.368Z,17.08
2018-09-22T08:23:48.150Z,17.17
2018-09-22T08:25:48.779Z,17.23
2018-09-22T08:26:48.888Z,17.37
2018-09-22T08:27:49.002Z,17.54
2018-09-22T08:28:49.208Z,17.71
2018-09-22T08:29:49.419Z,17.87
2018-09-22T08:30:49.735Z,17.99
2018-09-22T08:31:49.943Z,18.07
2018-09-22T08:32:50.268Z,18.18
2018-09-22T08:33:50.578Z,18.25
2018-09-22T08:34:51.091Z,18.25
2018-09-22T08:35:50.688Z,18.19
2018-09-22T08:36:51.188Z,18.14
2018-09-22T08:37:51.226Z,18.08
2018-09-22T08:38:51.940Z,18.00
2018-09-22T08:39:51.637Z,17.93
2018-09-22T08:40:51.542Z,17.86
2018-09-22T08:41:52.052Z,17.80
2018-09-22T08:42:52.171Z,17.73
2018-09-22T08:43:52.187Z,17.68
2018-09-22T08:44:52.450Z,17.63
2018-09-22T08:45:52.792Z,17.56
2018-09-22T08:46:52.900Z,17.48
2018-09-22T08:47:53.074Z,17.40
2018-09-22T08:48:53.245Z,17.35
2018-09-22T08:49:53.502Z,17.31
2018-09-22T08:50:53.616Z,17.26
2018-09-22T08:51:53.995Z,17.22
2018-09-22T08:52:54.245Z,17.24
2018-09-22T08:53:54.409Z,17.28
2018-09-22T08:54:54.262Z,17.38
2018-09-22T08:55:54.560Z,17.46
2018-09-22T08:56:55.200Z,17.59
2018-09-22T08:57:55.472Z,17.73
2018-09-22T08:58:55.261Z,17.84
2018-09-22T08:59:55.630Z,17.97
2018-09-22T09:00:56.001Z,18.12
2018-09-22T09:01:56.100Z,18.32
2018-09-22T09:02:56.493Z,18.46
2018-09-22T09:03:56.895Z,18.55
2018-09-22T09:04:57.447Z,18.68
2018-09-22T09:05:57.750Z,18.74
2018-09-22T09:06:57.669Z,18.86
2018-09-22T09:07:57.585Z,18.93
2018-09-22T09:08:57.877Z,18.95
2018-09-22T09:09:58.454Z,18.99
2018-09-22T09:10:58.516Z,19.04
2018-09-22T09:11:58.570Z,19.09
2018-09-22T09:12:58.459Z,19.09
2018-09-22T09:13:58.951Z,19.07
2018-09-22T09:14:59.457Z,19.06
2018-09-22T09:15:59.270Z,19.03
2018-09-22T09:16:59.654Z,19.01
2018-09-22T09:17:59.901Z,18.99
2018-09-22T09:18:59.805Z,18.94
2018-09-22T09:20:00.451Z,18.94
2018-09-22T09:21:00.348Z,18.93
2018-09-22T09:22:00.747Z,18.92
2018-09-22T09:23:01.246Z,18.95
2018-09-22T09:24:01.580Z,18.95
2018-09-22T09:25:02.263Z,18.99
2018-09-22T09:26:02.422Z,19.05
2018-09-22T09:27:03.106Z,19.11
2018-09-22T09:28:02.764Z,19.21
2018-09-22T09:29:02.954Z,19.25
2018-09-22T09:30:03.331Z,19.31
2018-09-22T09:31:04.257Z,19.41
2018-09-22T09:32:04.478Z,19.58
2018-09-22T09:33:04.998Z,19.83
2018-09-22T09:34:04.896Z,20.09
2018-09-22T09:35:04.898Z,20.36
2018-09-22T09:36:05.114Z,20.54
2018-09-22T09:38:05.342Z,20.69
2018-09-22T09:39:05.947Z,20.90
2018-09-22T09:40:05.543Z,21.08
2018-09-22T09:41:06.063Z,21.23
2018-09-22T09:42:06.274Z,21.39
2018-09-22T09:43:06.473Z,21.55
2018-09-22T09:44:06.383Z,21.66
2018-09-22T09:45:06.498Z,21.77
2018-09-22T09:46:06.711Z,21.92
2018-09-22T09:47:07.012Z,22.06
2018-09-22T09:48:07.047Z,22.11
2018-09-22T09:49:07.112Z,22.20
2018-09-22T09:50:07.029Z,22.29
2018-09-22T09:51:07.377Z,22.33
2018-09-22T09:52:07.598Z,22.32
2018-09-22T09:53:07.623Z,22.34
2018-09-22T09:54:07.600Z,22.37
2018-09-22T09:55:08.201Z,22.42
2018-09-22T09:56:08.080Z,22.39
2018-09-22T09:57:08.771Z,22.40
2018-09-22T09:58:09.181Z,22.47
2018-09-22T09:59:09.267Z,22.54
2018-09-22T10:00:09.007Z,22.56
2018-09-22T10:01:09.288Z,22.55
2018-09-22T10:02:09.820Z,22.56
2018-09-22T10:03:09.666Z,22.60
2018-09-22T10:04:10.537Z,22.65
2018-09-22T10:05:10.743Z,22.66
2018-09-22T10:06:10.609Z,22.70
2018-09-22T10:07:11.288Z,22.79
2018-09-22T10:08:11.380Z,22.91
2018-09-22T10:09:11.702Z,23.00
2018-09-22T10:10:11.673Z,22.95
2018-09-22T10:11:12.133Z,22.85
2018-09-22T10:12:12.437Z,22.86
2018-09-22T10:13:12.779Z,22.90
2018-09-22T10:14:13.480Z,22.86
2018-09-22T10:15:13.434Z,22.85
2018-09-22T10:16:13.788Z,22.78
2018-09-22T10:17:14.209Z,22.57
2018-09-22T10:18:14.514Z,22.46
2018-09-22T10:19:15.024Z,22.47
2018-09-22T10:20:15.219Z,22.42
2018-09-22T10:21:15.240Z,22.38
2018-09-22T10:22:15.834Z,22.30
2018-09-22T10:23:15.897Z,22.25
2018-09-22T10:24:15.892Z,22.18
2018-09-22T10:25:16.629Z,22.07
2018-09-22T10:27:16.606Z,22.05
2018-09-22T10:28:17.178Z,21.95
2018-09-22T10:29:17.252Z,21.90
2018-09-22T10:30:17.454Z,21.88
2018-09-22T10:31:17.324Z,21.88
2018-09-22T10:32:17.741Z,21.88
2018-09-22T10:33:18.801Z,21.84
2018-09-22T10:34:18.708Z,21.89
2018-09-22T10:35:19.626Z,21.93
2018-09-22T10:36:19.939Z,21.95
2018-09-22T10:37:20.355Z,22.01
2018-09-22T10:38:20.689Z,22.05
2018-09-22T10:39:20.993Z,22.11
2018-09-22T10:40:21.194Z,22.14
2018-09-22T10:41:21.509Z,22.02
2018-09-22T10:42:22.272Z,22.02
2018-09-22T10:43:21.831Z,22.04
2018-09-22T10:44:21.744Z,22.04
2018-09-22T10:45:22.231Z,22.06
2018-09-22T10:46:22.439Z,22.11
2018-09-22T10:47:22.521Z,22.17
2018-09-22T10:48:22.624Z,22.21
2018-09-22T10:49:22.693Z,22.31
2018-09-22T10:50:22.857Z,22.42
2018-09-22T10:51:23.073Z,22.52
2018-09-22T10:52:23.313Z,22.61
2018-09-22T10:53:23.531Z,22.69
2018-09-22T10:54:23.890Z,22.78
2018-09-22T10:55:24.118Z,22.86
2018-09-22T10:56:24.288Z,22.85
2018-09-22T10:57:24.481Z,22.89
2018-09-22T10:58:24.668Z,22.99
2018-09-22T10:59:24.560Z,23.11
2018-09-22T11:00:25.122Z,23.17
2018-09-22T11:01:25.119Z,23.22
2018-09-22T11:02:25.635Z,23.27
2018-09-22T11:03:25.448Z,23.33
2018-09-22T11:04:25.666Z,23.45
2018-09-22T11:05:25.934Z,23.47
2018-09-22T11:06:26.382Z,23.47
2018-09-22T11:07:26.991Z,23.44
2018-09-22T11:08:27.156Z,23.27
2018-09-22T11:09:27.577Z,23.07
2018-09-22T11:10:27.973Z,23.03
2018-09-22T11:11:28.335Z,23.00
2018-09-22T11:12:28.811Z,22.88
2018-09-22T11:13:28.959Z,22.82
2018-09-22T11:14:28.755Z,22.78
2018-09-22T11:15:29.170Z,22.86
2018-09-22T11:16:29.548Z,22.99
2018-09-22T11:17:29.857Z,22.94
2018-09-22T11:18:30.181Z,22.97
2018-09-22T11:19:30.558Z,22.90
2018-09-22T11:20:30.907Z,22.89
2018-09-22T11:21:31.220Z,22.92
2018-09-22T11:22:31.518Z,22.92
2018-09-22T11:23:31.845Z,22.99
2018-09-22T11:24:32.339Z,22.98
2018-09-22T11:25:32.720Z,22.94
2018-09-22T11:26:33.780Z,22.89
2018-09-22T11:27:33.794Z,22.82
2018-09-22T11:28:33.706Z,22.84
2018-09-22T11:29:34.215Z,23.07
2018-09-22T11:30:34.632Z,23.23
2018-09-22T11:31:34.945Z,23.22
2018-09-22T11:32:35.074Z,23.14
2018-09-22T11:33:35.478Z,23.06
2018-09-22T11:34:35.992Z,22.98
2018-09-22T11:35:36.303Z,22.87
2018-09-22T11:36:36.818Z,22.77
2018-09-22T11:37:36.519Z,22.69
2018-09-22T11:38:36.635Z,22.52
2018-09-22T11:39:36.836Z,22.36
2018-09-22T11:40:37.138Z,22.23
2018-09-22T11:41:37.233Z,22.13
2018-09-22T11:42:37.442Z,22.03
2018-09-22T11:43:37.520Z,21.95
2018-09-22T11:44:37.590Z,21.88
2018-09-22T11:45:37.694Z,22.02
2018-09-22T11:46:37.808Z,22.25
2018-09-22T11:47:37.945Z,22.49
2018-09-22T11:48:38.237Z,22.78
2018-09-22T11:49:38.413Z,23.13
2018-09-22T11:50:38.622Z,23.35
2018-09-22T11:51:39.110Z,23.31
2018-09-22T11:52:39.213Z,23.24
2018-09-22T11:53:39.283Z,23.21
2018-09-22T11:54:39.189Z,23.16
2018-09-22T11:55:39.560Z,23.09
2018-09-22T11:56:39.839Z,23.02
2018-09-22T11:57:40.429Z,22.96
2018-09-22T11:58:40.536Z,22.92
2018-09-22T11:59:40.573Z,22.93
2018-09-22T12:01:40.489Z,22.99
2018-09-22T12:02:41.264Z,23.15
2018-09-22T12:03:41.346Z,23.26
2018-09-22T12:04:41.584Z,23.22
2018-09-22T12:05:41.434Z,23.26
2018-09-22T12:06:42.160Z,23.20
2018-09-22T12:07:41.858Z,23.09
2018-09-22T12:08:42.468Z,23.07
2018-09-22T12:09:42.655Z,23.05
2018-09-22T12:10:42.499Z,23.06
2018-09-22T12:11:42.814Z,23.04
2018-09-22T12:12:43.321Z,22.94
2018-09-22T12:13:43.647Z,22.87
2018-09-22T12:14:44.136Z,22.75
2018-09-22T12:15:44.512Z,22.69
2018-09-22T12:16:44.808Z,22.66
2018-09-22T12:17:45.333Z,22.52
2018-09-22T12:18:45.332Z,22.49
2018-09-22T12:19:45.217Z,22.43
2018-09-22T12:20:45.804Z,22.45
2018-09-22T12:21:46.147Z,22.45
2018-09-22T12:22:46.457Z,22.43
2018-09-22T12:23:46.785Z,22.44
2018-09-22T12:24:47.290Z,22.51
2018-09-22T12:25:47.295Z,22.62
2018-09-22T12:26:47.456Z,22.71
2018-09-22T12:27:47.309Z,22.85
2018-09-22T12:28:47.642Z,22.99
2018-09-22T12:29:48.020Z,23.10
2018-09-22T12:30:49.360Z,23.14
2018-09-22T12:31:49.683Z,23.27
2018-09-22T12:32:49.884Z,23.53
2018-09-22T12:33:50.107Z,23.76
2018-09-22T12:34:50.815Z,23.82
2018-09-22T12:35:50.620Z,23.86
2018-09-22T12:36:50.875Z,23.96
2018-09-22T12:37:50.938Z,24.01
2018-09-22T12:38:50.957Z,24.11
2018-09-22T12:39:51.194Z,24.18
2018-09-22T12:40:51.470Z,24.25
2018-09-22T12:41:51.684Z,24.28
2018-09-22T12:42:51.794Z,24.31
2018-09-22T12:43:52.003Z,24.33
2018-09-22T12:44:52.188Z,24.28
2018-09-22T12:45:52.220Z,24.22
2018-09-22T12:46:52.192Z,24.19
2018-09-22T12:47:52.530Z,24.01
2018-09-22T12:48:52.706Z,23.92
2018-09-22T12:49:52.868Z,23.83
2018-09-22T12:50:53.029Z,23.75
2018-09-22T12:51:53.108Z,23.69
2018-09-22T12:52:53.285Z,23.60
2018-09-22T12:53:53.480Z,23.46
2018-09-22T12:54:54.107Z,23.23
2018-09-22T12:55:53.997Z,23.15
2018-09-22T12:56:54.158Z,23.06
2018-09-22T12:57:54.099Z,23.03
2018-09-22T12:58:54.398Z,22.98
2018-09-22T12:59:54.905Z,22.92
2018-09-22T13:00:55.165Z,22.92
2018-09-22T13:01:55.007Z,22.91
2018-09-22T13:02:55.563Z,22.91
2018-09-22T13:03:55.444Z,22.87